sensor_id;sensor_type;location;lat;lon;timestamp;pressure;altitude;pressure_sealevel;temperature;humidity
13732;BME280;6937;56.096;12.664;2023-05-17T00:00:00;100722.84;;;9.74;100.00
13732;BME280;6937;56.096;12.664;2023-05-17T00:02:26;100720.34;;;9.71;100.00
13732;BME280;6937;56.096;12.664;2023-05-17T00:04:51;100728.34;;;9.71;100.00
13732;BME280;6937;56.096;12.664;2023-05-17T00:07:18;100729.56;;;9.67;100.00
13732;BME280;6937;56.096;12.664;2023-05-17T00:09:43;100726.91;;;9.67;100.00
13732;BME280;6937;56.096;12.664;2023-05-17T00:12:09;100761.75;;;9.64;100.00
13732;BME280;6937;56.096;12.664;2023-05-17T00:14:35;100735.22;;;9.62;100.00
13732;BME280;6937;56.096;12.664;2023-05-17T00:17:01;100745.13;;;9.60;100.00
13732;BME280;6937;56.096;12.664;2023-05-17T00:19:27;100742.66;;;9.57;100.00
13732;BME280;6937;56.096;12.664;2023-05-17T00:21:53;100721.44;;;9.56;100.00
13732;BME280;6937;56.096;12.664;2023-05-17T00:24:18;100733.06;;;9.55;100.00
13732;BME280;6937;56.096;12.664;2023-05-17T00:26:44;100738.63;;;9.52;100.00
13732;BME280;6937;56.096;12.664;2023-05-17T00:29:10;100742.44;;;9.48;100.00
13732;BME280;6937;56.096;12.664;2023-05-17T00:31:36;100743.50;;;9.45;100.00
13732;BME280;6937;56.096;12.664;2023-05-17T00:34:02;100733.03;;;9.42;100.00
13732;BME280;6937;56.096;12.664;2023-05-17T00:36:28;100736.47;;;9.44;100.00
13732;BME280;6937;56.096;12.664;2023-05-17T00:38:53;100749.69;;;9.46;100.00
13732;BME280;6937;56.096;12.664;2023-05-17T00:41:19;100736.66;;;9.41;100.00
13732;BME280;6937;56.096;12.664;2023-05-17T00:43:45;100741.16;;;9.41;100.00
13732;BME280;6937;56.096;12.664;2023-05-17T00:46:11;100772.31;;;9.40;100.00
13732;BME280;6937;56.096;12.664;2023-05-17T00:48:37;100767.84;;;9.41;100.00
13732;BME280;6937;56.096;12.664;2023-05-17T00:51:03;100766.13;;;9.40;100.00
13732;BME280;6937;56.096;12.664;2023-05-17T00:53:29;100756.59;;;9.36;100.00
13732;BME280;6937;56.096;12.664;2023-05-17T00:55:55;100741.56;;;9.35;100.00
13732;BME280;6937;56.096;12.664;2023-05-17T00:58:21;100770.91;;;9.35;100.00
13732;BME280;6937;56.096;12.664;2023-05-17T01:00:49;100769.31;;;9.32;100.00
13732;BME280;6937;56.096;12.664;2023-05-17T01:03:15;100762.38;;;9.30;100.00
13732;BME280;6937;56.096;12.664;2023-05-17T01:05:41;100796.25;;;9.28;100.00
13732;BME280;6937;56.096;12.664;2023-05-17T01:08:07;100796.78;;;9.20;100.00
13732;BME280;6937;56.096;12.664;2023-05-17T01:13:32;100803.06;;;9.19;100.00
13732;BME280;6937;56.096;12.664;2023-05-17T01:16:33;100803.91;;;9.19;100.00
13732;BME280;6937;56.096;12.664;2023-05-17T01:27:27;100831.53;;;9.18;100.00
13732;BME280;6937;56.096;12.664;2023-05-17T01:29:55;100823.66;;;9.17;100.00
13732;BME280;6937;56.096;12.664;2023-05-17T01:32:23;100827.25;;;9.16;100.00
13732;BME280;6937;56.096;12.664;2023-05-17T01:34:49;100826.81;;;9.09;100.00
13732;BME280;6937;56.096;12.664;2023-05-17T01:37:15;100833.22;;;9.07;100.00
13732;BME280;6937;56.096;12.664;2023-05-17T01:39:41;100828.72;;;9.07;100.00
13732;BME280;6937;56.096;12.664;2023-05-17T01:42:21;100851.22;;;9.03;100.00
13732;BME280;6937;56.096;12.664;2023-05-17T01:45:05;100828.56;;;8.96;100.00
13732;BME280;6937;56.096;12.664;2023-05-17T01:50:24;100862.75;;;8.90;100.00
13732;BME280;6937;56.096;12.664;2023-05-17T01:53:17;100854.56;;;8.79;100.00
13732;BME280;6937;56.096;12.664;2023-05-17T01:55:49;100864.38;;;8.78;100.00
13732;BME280;6937;56.096;12.664;2023-05-17T01:58:17;100853.72;;;8.78;100.00
13732;BME280;6937;56.096;12.664;2023-05-17T02:00:48;100874.50;;;8.73;100.00
13732;BME280;6937;56.096;12.664;2023-05-17T02:03:18;100873.44;;;8.61;100.00
13732;BME280;6937;56.096;12.664;2023-05-17T02:05:47;100888.56;;;8.61;100.00
13732;BME280;6937;56.096;12.664;2023-05-17T02:08:14;100882.78;;;8.54;100.00
13732;BME280;6937;56.096;12.664;2023-05-17T02:10:39;100885.31;;;8.56;100.00
13732;BME280;6937;56.096;12.664;2023-05-17T02:13:08;100888.38;;;8.50;100.00
13732;BME280;6937;56.096;12.664;2023-05-17T02:15:34;100892.84;;;8.49;100.00
13732;BME280;6937;56.096;12.664;2023-05-17T02:17:59;100892.94;;;8.48;100.00
13732;BME280;6937;56.096;12.664;2023-05-17T02:20:25;100904.44;;;8.48;100.00
13732;BME280;6937;56.096;12.664;2023-05-17T02:22:51;100901.03;;;8.46;100.00
13732;BME280;6937;56.096;12.664;2023-05-17T02:25:17;100902.06;;;8.44;100.00
13732;BME280;6937;56.096;12.664;2023-05-17T02:27:43;100890.66;;;8.42;100.00
13732;BME280;6937;56.096;12.664;2023-05-17T02:30:09;100916.34;;;8.43;100.00
13732;BME280;6937;56.096;12.664;2023-05-17T02:32:35;100908.56;;;8.40;100.00
13732;BME280;6937;56.096;12.664;2023-05-17T02:35:00;100901.50;;;8.39;100.00
13732;BME280;6937;56.096;12.664;2023-05-17T02:37:26;100911.38;;;8.37;100.00
13732;BME280;6937;56.096;12.664;2023-05-17T02:39:52;100906.03;;;8.37;100.00
13732;BME280;6937;56.096;12.664;2023-05-17T02:42:19;100897.19;;;8.36;100.00
13732;BME280;6937;56.096;12.664;2023-05-17T02:44:44;100900.31;;;8.29;100.00
13732;BME280;6937;56.096;12.664;2023-05-17T02:47:10;100880.03;;;8.26;100.00
13732;BME280;6937;56.096;12.664;2023-05-17T02:49:36;100851.81;;;8.23;100.00
13732;BME280;6937;56.096;12.664;2023-05-17T02:52:02;100856.56;;;8.18;100.00
13732;BME280;6937;56.096;12.664;2023-05-17T02:54:27;100856.66;;;8.17;100.00
13732;BME280;6937;56.096;12.664;2023-05-17T02:56:53;100854.81;;;8.17;100.00
13732;BME280;6937;56.096;12.664;2023-05-17T02:59:20;100870.72;;;8.19;100.00
13732;BME280;6937;56.096;12.664;2023-05-17T03:01:45;100877.09;;;8.16;100.00
13732;BME280;6937;56.096;12.664;2023-05-17T03:04:11;100871.97;;;8.13;100.00
13732;BME280;6937;56.096;12.664;2023-05-17T03:06:37;100881.91;;;8.10;100.00
13732;BME280;6937;56.096;12.664;2023-05-17T03:09:03;100875.09;;;8.06;100.00
13732;BME280;6937;56.096;12.664;2023-05-17T03:11:29;100881.44;;;8.03;100.00
13732;BME280;6937;56.096;12.664;2023-05-17T03:13:54;100878.03;;;8.01;100.00
13732;BME280;6937;56.096;12.664;2023-05-17T03:16:20;100886.00;;;8.01;100.00
13732;BME280;6937;56.096;12.664;2023-05-17T03:18:46;100899.59;;;7.97;100.00
13732;BME280;6937;56.096;12.664;2023-05-17T03:21:12;100910.31;;;7.95;100.00
13732;BME280;6937;56.096;12.664;2023-05-17T03:23:39;100887.13;;;7.97;100.00
13732;BME280;6937;56.096;12.664;2023-05-17T03:26:05;100896.91;;;7.97;100.00
13732;BME280;6937;56.096;12.664;2023-05-17T03:28:31;100912.22;;;7.93;100.00
13732;BME280;6937;56.096;12.664;2023-05-17T03:30:56;100891.84;;;7.92;100.00
13732;BME280;6937;56.096;12.664;2023-05-17T03:33:22;100906.97;;;7.92;100.00
13732;BME280;6937;56.096;12.664;2023-05-17T03:35:48;100932.81;;;7.90;100.00
13732;BME280;6937;56.096;12.664;2023-05-17T03:38:14;100918.84;;;7.86;100.00
13732;BME280;6937;56.096;12.664;2023-05-17T03:40:40;100925.38;;;7.81;100.00
13732;BME280;6937;56.096;12.664;2023-05-17T03:43:06;100941.44;;;7.79;100.00
13732;BME280;6937;56.096;12.664;2023-05-17T03:45:32;100936.13;;;7.79;100.00
13732;BME280;6937;56.096;12.664;2023-05-17T03:47:58;100933.47;;;7.79;100.00
13732;BME280;6937;56.096;12.664;2023-05-17T03:50:23;100933.47;;;7.79;100.00
13732;BME280;6937;56.096;12.664;2023-05-17T03:52:49;100940.56;;;7.78;100.00
13732;BME280;6937;56.096;12.664;2023-05-17T03:55:15;100947.63;;;7.80;100.00
13732;BME280;6937;56.096;12.664;2023-05-17T03:57:41;100958.25;;;7.80;100.00
13732;BME280;6937;56.096;12.664;2023-05-17T04:00:07;100960.06;;;7.79;100.00
13732;BME280;6937;56.096;12.664;2023-05-17T04:02:37;100945.78;;;7.80;100.00
13732;BME280;6937;56.096;12.664;2023-05-17T04:05:03;100964.34;;;7.82;100.00
13732;BME280;6937;56.096;12.664;2023-05-17T04:07:29;100970.59;;;7.81;100.00
13732;BME280;6937;56.096;12.664;2023-05-17T04:09:56;100968.03;;;7.79;100.00
13732;BME280;6937;56.096;12.664;2023-05-17T04:12:27;100970.59;;;7.81;100.00
13732;BME280;6937;56.096;12.664;2023-05-17T04:14:53;100971.47;;;7.81;100.00
13732;BME280;6937;56.096;12.664;2023-05-17T04:17:19;100982.88;;;7.83;100.00
13732;BME280;6937;56.096;12.664;2023-05-17T04:19:45;100973.84;;;7.86;100.00
13732;BME280;6937;56.096;12.664;2023-05-17T04:22:11;100980.78;;;7.88;100.00
13732;BME280;6937;56.096;12.664;2023-05-17T04:24:37;100972.75;;;7.90;100.00
13732;BME280;6937;56.096;12.664;2023-05-17T04:27:03;100987.78;;;7.91;100.00
13732;BME280;6937;56.096;12.664;2023-05-17T04:29:29;100986.81;;;7.92;100.00
13732;BME280;6937;56.096;12.664;2023-05-17T04:31:55;100986.03;;;7.90;100.00
13732;BME280;6937;56.096;12.664;2023-05-17T04:34:21;100988.78;;;7.88;100.00
13732;BME280;6937;56.096;12.664;2023-05-17T04:36:51;100999.44;;;7.88;100.00
13732;BME280;6937;56.096;12.664;2023-05-17T04:39:17;101025.03;;;7.91;100.00
13732;BME280;6937;56.096;12.664;2023-05-17T04:41:43;101005.88;;;7.84;100.00
13732;BME280;6937;56.096;12.664;2023-05-17T04:44:09;101011.03;;;7.87;100.00
13732;BME280;6937;56.096;12.664;2023-05-17T04:46:35;101018.84;;;7.90;100.00
13732;BME280;6937;56.096;12.664;2023-05-17T04:49:02;101022.63;;;7.86;100.00
13732;BME280;6937;56.096;12.664;2023-05-17T04:51:29;101042.09;;;7.87;100.00
13732;BME280;6937;56.096;12.664;2023-05-17T04:53:55;101040.03;;;7.92;100.00
13732;BME280;6937;56.096;12.664;2023-05-17T04:56:22;101054.13;;;7.94;100.00
13732;BME280;6937;56.096;12.664;2023-05-17T04:58:48;101038.22;;;7.92;100.00
13732;BME280;6937;56.096;12.664;2023-05-17T05:01:14;101064.94;;;7.91;100.00
13732;BME280;6937;56.096;12.664;2023-05-17T05:03:40;101074.63;;;7.92;100.00
13732;BME280;6937;56.096;12.664;2023-05-17T05:06:13;101062.97;;;7.94;100.00
13732;BME280;6937;56.096;12.664;2023-05-17T05:08:40;101072.94;;;7.91;100.00
13732;BME280;6937;56.096;12.664;2023-05-17T05:11:06;101080.03;;;7.90;100.00
13732;BME280;6937;56.096;12.664;2023-05-17T05:13:35;101074.53;;;7.93;100.00
13732;BME280;6937;56.096;12.664;2023-05-17T05:16:04;101079.94;;;7.92;100.00
13732;BME280;6937;56.096;12.664;2023-05-17T05:18:30;101080.81;;;7.92;100.00
13732;BME280;6937;56.096;12.664;2023-05-17T05:20:56;101079.69;;;7.96;100.00
13732;BME280;6937;56.096;12.664;2023-05-17T05:23:22;101097.56;;;7.94;100.00
13732;BME280;6937;56.096;12.664;2023-05-17T05:25:51;101106.13;;;7.99;100.00
13732;BME280;6937;56.096;12.664;2023-05-17T05:28:17;101106.91;;;8.01;100.00
13732;BME280;6937;56.096;12.664;2023-05-17T05:30:43;101106.06;;;8.01;100.00
13732;BME280;6937;56.096;12.664;2023-05-17T05:33:08;101100.56;;;8.04;100.00
13732;BME280;6937;56.096;12.664;2023-05-17T05:35:35;101110.25;;;8.05;100.00
13732;BME280;6937;56.096;12.664;2023-05-17T05:38:00;101116.34;;;8.07;100.00
13732;BME280;6937;56.096;12.664;2023-05-17T05:40:26;101130.63;;;8.06;100.00
13732;BME280;6937;56.096;12.664;2023-05-17T05:42:52;101130.00;;;8.16;100.00
13732;BME280;6937;56.096;12.664;2023-05-17T05:45:20;101142.03;;;8.23;100.00
13732;BME280;6937;56.096;12.664;2023-05-17T05:47:46;101133.34;;;8.20;100.00
13732;BME280;6937;56.096;12.664;2023-05-17T05:50:12;101156.88;;;8.27;100.00
13732;BME280;6937;56.096;12.664;2023-05-17T05:52:38;101157.50;;;8.33;100.00
13732;BME280;6937;56.096;12.664;2023-05-17T05:55:05;101168.50;;;8.42;100.00
13732;BME280;6937;56.096;12.664;2023-05-17T05:57:31;101178.78;;;8.48;100.00
13732;BME280;6937;56.096;12.664;2023-05-17T05:59:57;101187.66;;;8.49;100.00
13732;BME280;6937;56.096;12.664;2023-05-17T06:02:23;101192.13;;;8.48;100.00
13732;BME280;6937;56.096;12.664;2023-05-17T06:04:49;101199.94;;;8.51;100.00
13732;BME280;6937;56.096;12.664;2023-05-17T06:07:15;101211.19;;;8.56;100.00
13732;BME280;6937;56.096;12.664;2023-05-17T06:09:41;101204.31;;;8.52;100.00
13732;BME280;6937;56.096;12.664;2023-05-17T06:12:07;101217.19;;;8.60;100.00
13732;BME280;6937;56.096;12.664;2023-05-17T06:14:33;101199.22;;;8.79;100.00
13732;BME280;6937;56.096;12.664;2023-05-17T06:16:59;101213.63;;;8.91;100.00
13732;BME280;6937;56.096;12.664;2023-05-17T06:19:25;101217.00;;;8.79;100.00
13732;BME280;6937;56.096;12.664;2023-05-17T06:21:51;101226.81;;;8.78;100.00
13732;BME280;6937;56.096;12.664;2023-05-17T06:24:16;101228.16;;;8.85;100.00
13732;BME280;6937;56.096;12.664;2023-05-17T06:26:42;101218.09;;;8.90;100.00
13732;BME280;6937;56.096;12.664;2023-05-17T06:29:08;101230.06;;;8.99;100.00
13732;BME280;6937;56.096;12.664;2023-05-17T06:31:35;101242.34;;;9.01;100.00
13732;BME280;6937;56.096;12.664;2023-05-17T06:34:01;101233.91;;;8.93;100.00
13732;BME280;6937;56.096;12.664;2023-05-17T06:36:26;101236.75;;;8.90;100.00
13732;BME280;6937;56.096;12.664;2023-05-17T06:38:52;101249.16;;;8.91;100.00
13732;BME280;6937;56.096;12.664;2023-05-17T06:41:18;101248.53;;;9.02;100.00
13732;BME280;6937;56.096;12.664;2023-05-17T06:43:45;101242.06;;;9.06;100.00
13732;BME280;6937;56.096;12.664;2023-05-17T06:46:11;101262.09;;;9.13;100.00
13732;BME280;6937;56.096;12.664;2023-05-17T06:48:37;101266.97;;;9.20;100.00
13732;BME280;6937;56.096;12.664;2023-05-17T06:51:02;101269.66;;;9.20;100.00
13732;BME280;6937;56.096;12.664;2023-05-17T06:53:28;101270.25;;;9.26;100.00
13732;BME280;6937;56.096;12.664;2023-05-17T06:55:57;101266.16;;;9.34;100.00
13732;BME280;6937;56.096;12.664;2023-05-17T06:58:23;101269.59;;;9.36;100.00
13732;BME280;6937;56.096;12.664;2023-05-17T07:00:49;101267.63;;;9.40;100.00
13732;BME280;6937;56.096;12.664;2023-05-17T07:03:15;101267.63;;;9.40;100.00
13732;BME280;6937;56.096;12.664;2023-05-17T07:05:40;101295.22;;;9.39;100.00
13732;BME280;6937;56.096;12.664;2023-05-17T07:08:06;101288.06;;;9.25;100.00
13732;BME280;6937;56.096;12.664;2023-05-17T07:10:32;101283.22;;;9.32;100.00
13732;BME280;6937;56.096;12.664;2023-05-17T07:12:58;101292.75;;;9.36;100.00
13732;BME280;6937;56.096;12.664;2023-05-17T07:15:27;101286.38;;;9.38;100.00
13732;BME280;6937;56.096;12.664;2023-05-17T07:17:59;101271.91;;;9.42;100.00
13732;BME280;6937;56.096;12.664;2023-05-17T07:20:25;101292.19;;;9.45;100.00
13732;BME280;6937;56.096;12.664;2023-05-17T07:22:51;101287.00;;;9.57;100.00
13732;BME280;6937;56.096;12.664;2023-05-17T07:25:17;101303.47;;;9.50;100.00
13732;BME280;6937;56.096;12.664;2023-05-17T07:27:45;101309.06;;;9.45;100.00
13732;BME280;6937;56.096;12.664;2023-05-17T07:30:11;101313.72;;;9.42;100.00
13732;BME280;6937;56.096;12.664;2023-05-17T07:32:37;101334.81;;;9.46;100.00
13732;BME280;6937;56.096;12.664;2023-05-17T07:35:07;101328.53;;;9.47;100.00
13732;BME280;6937;56.096;12.664;2023-05-17T07:37:34;101332.53;;;9.54;100.00
13732;BME280;6937;56.096;12.664;2023-05-17T07:40:00;101324.56;;;9.68;100.00
13732;BME280;6937;56.096;12.664;2023-05-17T07:42:26;101319.38;;;9.81;100.00
13732;BME280;6937;56.096;12.664;2023-05-17T07:44:52;101341.19;;;9.74;100.00
13732;BME280;6937;56.096;12.664;2023-05-17T07:47:17;101353.59;;;9.75;100.00
13732;BME280;6937;56.096;12.664;2023-05-17T07:49:43;101341.66;;;9.80;100.00
13732;BME280;6937;56.096;12.664;2023-05-17T07:52:09;101362.44;;;9.75;100.00
13732;BME280;6937;56.096;12.664;2023-05-17T07:54:35;101347.09;;;9.79;100.00
13732;BME280;6937;56.096;12.664;2023-05-17T07:57:01;101350.28;;;9.85;100.00
13732;BME280;6937;56.096;12.664;2023-05-17T07:59:27;101343.69;;;9.91;100.00
13732;BME280;6937;56.096;12.664;2023-05-17T08:01:53;101349.97;;;9.90;100.00
13732;BME280;6937;56.096;12.664;2023-05-17T08:04:19;101386.69;;;9.86;100.00
13732;BME280;6937;56.096;12.664;2023-05-17T08:06:45;101384.00;;;9.86;100.00
13732;BME280;6937;56.096;12.664;2023-05-17T08:09:13;101384.00;;;9.86;100.00
13732;BME280;6937;56.096;12.664;2023-05-17T08:11:41;101386.91;;;9.97;100.00
13732;BME280;6937;56.096;12.664;2023-05-17T08:14:14;101370.13;;;9.95;100.00
13732;BME280;6937;56.096;12.664;2023-05-17T08:16:44;101408.63;;;9.91;100.00
13732;BME280;6937;56.096;12.664;2023-05-17T08:19:11;101397.41;;;10.00;100.00
13732;BME280;6937;56.096;12.664;2023-05-17T08:21:38;101405.91;;;10.07;100.00
13732;BME280;6937;56.096;12.664;2023-05-17T08:24:05;101415.06;;;10.03;100.00
13732;BME280;6937;56.096;12.664;2023-05-17T08:26:31;101430.84;;;9.92;100.00
13732;BME280;6937;56.096;12.664;2023-05-17T08:28:57;101436.41;;;10.03;100.00
13732;BME280;6937;56.096;12.664;2023-05-17T08:31:23;101426.88;;;9.99;100.00
13732;BME280;6937;56.096;12.664;2023-05-17T08:33:48;101426.59;;;10.03;100.00
13732;BME280;6937;56.096;12.664;2023-05-17T08:36:14;101436.13;;;10.23;100.00
13732;BME280;6937;56.096;12.664;2023-05-17T08:38:40;101445.22;;;10.35;100.00
13732;BME280;6937;56.096;12.664;2023-05-17T08:41:08;101438.44;;;10.29;100.00
13732;BME280;6937;56.096;12.664;2023-05-17T08:43:34;101432.69;;;10.35;100.00
13732;BME280;6937;56.096;12.664;2023-05-17T08:46:00;101460.94;;;10.25;100.00
13732;BME280;6937;56.096;12.664;2023-05-17T08:48:28;101453.13;;;10.22;100.00
13732;BME280;6937;56.096;12.664;2023-05-17T08:50:58;101477.22;;;10.21;100.00
13732;BME280;6937;56.096;12.664;2023-05-17T08:53:24;101455.97;;;10.19;100.00
13732;BME280;6937;56.096;12.664;2023-05-17T08:55:57;101472.31;;;10.13;100.00
13732;BME280;6937;56.096;12.664;2023-05-17T08:58:27;101476.28;;;10.22;100.00
13732;BME280;6937;56.096;12.664;2023-05-17T09:00:57;101466.09;;;10.42;100.00
13732;BME280;6937;56.096;12.664;2023-05-17T09:03:24;101488.94;;;10.48;100.00
13732;BME280;6937;56.096;12.664;2023-05-17T09:05:52;101498.44;;;10.53;100.00
13732;BME280;6937;56.096;12.664;2023-05-17T09:08:20;101499.56;;;10.63;100.00
13732;BME280;6937;56.096;12.664;2023-05-17T09:10:46;101496.78;;;10.65;100.00
13732;BME280;6937;56.096;12.664;2023-05-17T09:13:12;101501.47;;;10.61;100.00
13732;BME280;6937;56.096;12.664;2023-05-17T09:15:42;101503.28;;;10.61;100.00
13732;BME280;6937;56.096;12.664;2023-05-17T09:18:10;101516.56;;;10.77;100.00
13732;BME280;6937;56.096;12.664;2023-05-17T09:20:37;101491.84;;;10.87;100.00
13732;BME280;6937;56.096;12.664;2023-05-17T09:23:08;101527.47;;;10.88;100.00
13732;BME280;6937;56.096;12.664;2023-05-17T09:25:38;101532.34;;;10.81;100.00
13732;BME280;6937;56.096;12.664;2023-05-17T09:28:18;101529.53;;;10.68;100.00
13732;BME280;6937;56.096;12.664;2023-05-17T09:30:47;101542.44;;;10.62;100.00
13732;BME280;6937;56.096;12.664;2023-05-17T09:33:13;101543.75;;;10.55;100.00
13732;BME280;6937;56.096;12.664;2023-05-17T09:35:39;101549.03;;;10.56;100.00
13732;BME280;6937;56.096;12.664;2023-05-17T09:38:08;101555.97;;;10.59;100.00
13732;BME280;6937;56.096;12.664;2023-05-17T09:40:42;101558.34;;;10.49;100.00
13732;BME280;6937;56.096;12.664;2023-05-17T09:43:09;101550.00;;;10.40;100.00
13732;BME280;6937;56.096;12.664;2023-05-17T09:45:36;101573.97;;;10.41;100.00
13732;BME280;6937;56.096;12.664;2023-05-17T09:48:14;101558.88;;;10.40;100.00
13732;BME280;6937;56.096;12.664;2023-05-17T09:50:48;101572.69;;;10.33;100.00
13732;BME280;6937;56.096;12.664;2023-05-17T09:53:40;101577.44;;;10.28;100.00
13732;BME280;6937;56.096;12.664;2023-05-17T09:56:08;101567.81;;;10.25;100.00
13732;BME280;6937;56.096;12.664;2023-05-17T09:58:36;101586.75;;;10.36;100.00
13732;BME280;6937;56.096;12.664;2023-05-17T10:01:04;101584.78;;;10.54;100.00
13732;BME280;6937;56.096;12.664;2023-05-17T10:03:37;101586.63;;;10.53;100.00
13732;BME280;6937;56.096;12.664;2023-05-17T10:06:07;101582.97;;;10.54;100.00
13732;BME280;6937;56.096;12.664;2023-05-17T10:08:36;101601.91;;;10.65;100.00
13732;BME280;6937;56.096;12.664;2023-05-17T10:11:10;101602.03;;;10.64;100.00
13732;BME280;6937;56.096;12.664;2023-05-17T10:13:51;101607.00;;;10.70;100.00
13732;BME280;6937;56.096;12.664;2023-05-17T10:16:20;101604.06;;;10.75;100.00
13732;BME280;6937;56.096;12.664;2023-05-17T10:18:49;101621.59;;;10.94;100.00
13732;BME280;6937;56.096;12.664;2023-05-17T10:21:16;101614.53;;;11.07;100.00
13732;BME280;6937;56.096;12.664;2023-05-17T10:23:43;101627.16;;;11.05;100.00
13732;BME280;6937;56.096;12.664;2023-05-17T10:26:12;101631.16;;;10.98;100.00
13732;BME280;6937;56.096;12.664;2023-05-17T10:28:38;101642.22;;;11.06;100.00
13732;BME280;6937;56.096;12.664;2023-05-17T10:31:04;101662.75;;;11.06;100.00
13732;BME280;6937;56.096;12.664;2023-05-17T10:33:34;101644.81;;;11.08;100.00
13732;BME280;6937;56.096;12.664;2023-05-17T10:36:03;101661.75;;;11.08;100.00
13732;BME280;6937;56.096;12.664;2023-05-17T10:38:31;101669.56;;;10.97;100.00
13732;BME280;6937;56.096;12.664;2023-05-17T10:40:57;101672.06;;;10.85;100.00
13732;BME280;6937;56.096;12.664;2023-05-17T10:43:24;101663.63;;;10.77;100.00
13732;BME280;6937;56.096;12.664;2023-05-17T10:45:50;101657.34;;;10.78;100.00
13732;BME280;6937;56.096;12.664;2023-05-17T10:48:17;101638.41;;;10.96;100.00
13732;BME280;6937;56.096;12.664;2023-05-17T10:50:45;101622.06;;;11.01;100.00
13732;BME280;6937;56.096;12.664;2023-05-17T10:53:11;101611.50;;;10.84;100.00
13732;BME280;6937;56.096;12.664;2023-05-17T10:55:40;101596.50;;;10.67;100.00
13732;BME280;6937;56.096;12.664;2023-05-17T10:58:25;101609.72;;;10.54;100.00
13732;BME280;6937;56.096;12.664;2023-05-17T11:00:53;101603.34;;;10.57;100.00
13732;BME280;6937;56.096;12.664;2023-05-17T11:03:20;101590.34;;;10.65;100.00
13732;BME280;6937;56.096;12.664;2023-05-17T11:09:22;101576.53;;;11.31;100.00
13732;BME280;6937;56.096;12.664;2023-05-17T11:11:28;101603.38;;;11.29;100.00
13732;BME280;6937;56.096;12.664;2023-05-17T11:13:55;101607.84;;;11.29;100.00
13732;BME280;6937;56.096;12.664;2023-05-17T11:16:27;101611.50;;;11.56;100.00
13732;BME280;6937;56.096;12.664;2023-05-17T11:19:09;101617.63;;;11.86;100.00
13732;BME280;6937;56.096;12.664;2023-05-17T11:21:47;101648.41;;;11.93;100.00
13732;BME280;6937;56.096;12.664;2023-05-17T11:24:24;101671.38;;;11.97;100.00
13732;BME280;6937;56.096;12.664;2023-05-17T11:26:57;101680.56;;;11.93;100.00
13732;BME280;6937;56.096;12.664;2023-05-17T11:29:28;101701.91;;;11.81;100.00
13732;BME280;6937;56.096;12.664;2023-05-17T11:31:55;101717.22;;;11.79;100.00
13732;BME280;6937;56.096;12.664;2023-05-17T11:34:21;101719.59;;;11.83;100.00
13732;BME280;6937;56.096;12.664;2023-05-17T11:36:53;101734.13;;;11.79;100.00
13732;BME280;6937;56.096;12.664;2023-05-17T11:39:21;101728.84;;;11.63;100.00
13732;BME280;6937;56.096;12.664;2023-05-17T11:41:50;101736.19;;;11.60;100.00
13732;BME280;6937;56.096;12.664;2023-05-17T11:44:36;101751.84;;;11.38;100.00
13732;BME280;6937;56.096;12.664;2023-05-17T11:47:07;101736.25;;;11.44;100.00
13732;BME280;6937;56.096;12.664;2023-05-17T11:49:37;101753.84;;;11.78;100.00
13732;BME280;6937;56.096;12.664;2023-05-17T11:52:04;101752.63;;;11.84;100.00
13732;BME280;6937;56.096;12.664;2023-05-17T11:54:31;101758.72;;;11.72;100.00
13732;BME280;6937;56.096;12.664;2023-05-17T11:56:58;101757.88;;;11.41;100.00
13732;BME280;6937;56.096;12.664;2023-05-17T11:59:24;101767.00;;;11.23;100.00
13732;BME280;6937;56.096;12.664;2023-05-17T12:01:50;101767.38;;;11.17;100.00
13732;BME280;6937;56.096;12.664;2023-05-17T12:04:26;101784.63;;;11.11;100.00
13732;BME280;6937;56.096;12.664;2023-05-17T12:06:54;101793.41;;;11.13;100.00
13732;BME280;6937;56.096;12.664;2023-05-17T12:09:21;101790.72;;;11.13;100.00
13732;BME280;6937;56.096;12.664;2023-05-17T12:11:47;101779.88;;;11.17;100.00
13732;BME280;6937;56.096;12.664;2023-05-17T12:14:17;101793.06;;;11.20;100.00
13732;BME280;6937;56.096;12.664;2023-05-17T12:16:47;101794.44;;;11.27;100.00
13732;BME280;6937;56.096;12.664;2023-05-17T12:19:19;101785.50;;;11.42;100.00
13732;BME280;6937;56.096;12.664;2023-05-17T12:21:45;101786.59;;;11.68;100.00
13732;BME280;6937;56.096;12.664;2023-05-17T12:24:12;101795.19;;;11.88;100.00
13732;BME280;6937;56.096;12.664;2023-05-17T12:26:45;101813.75;;;12.05;100.00
13732;BME280;6937;56.096;12.664;2023-05-17T12:29:12;101801.78;;;11.97;100.00
13732;BME280;6937;56.096;12.664;2023-05-17T12:31:48;101805.53;;;12.08;100.00
13732;BME280;6937;56.096;12.664;2023-05-17T12:34:16;101792.13;;;12.23;100.00
13732;BME280;6937;56.096;12.664;2023-05-17T12:36:42;101808.22;;;12.37;100.00
13732;BME280;6937;56.096;12.664;2023-05-17T12:39:10;101801.31;;;12.33;100.00
13732;BME280;6937;56.096;12.664;2023-05-17T12:41:37;101809.66;;;12.28;100.00
13732;BME280;6937;56.096;12.664;2023-05-17T12:44:03;101816.63;;;12.31;100.00
13732;BME280;6937;56.096;12.664;2023-05-17T12:46:29;101823.44;;;12.22;100.00
13732;BME280;6937;56.096;12.664;2023-05-17T12:49:00;101819.03;;;12.21;100.00
13732;BME280;6937;56.096;12.664;2023-05-17T12:51:45;101828.69;;;12.24;100.00
13732;BME280;6937;56.096;12.664;2023-05-17T12:54:25;101842.88;;;12.40;100.00
13732;BME280;6937;56.096;12.664;2023-05-17T12:56:51;101846.03;;;12.46;100.00
13732;BME280;6937;56.096;12.664;2023-05-17T12:59:18;101859.16;;;12.37;100.00
13732;BME280;6937;56.096;12.664;2023-05-17T13:01:51;101859.31;;;12.20;100.00
13732;BME280;6937;56.096;12.664;2023-05-17T13:04:19;101864.22;;;12.27;100.00